Time;durP1;ratioP1;P1;durP2;ratioP2;P2;SDS_P1;SDS_P2;PMS_P1;PMS_P2;Temp;Humidity;BMP_temperature;BMP_pressure;BME280_temperature;BME280_humidity;BME280_pressure;Samples;Min_cycle;Max_cycle;Signal;HPM_P1;HPM_P2
2022/12/16 00:00:44;;;;;;;4.87;3.33;;;9.00;90.20;;;;;;10908069;32;20028;-73
2022/12/16 00:06:46;;;;;;;5.20;3.22;;;8.90;90.40;;;;;;10907804;32;20026;-73
2022/12/16 00:12:52;;;;;;;5.70;3.35;;;9.00;90.60;;;;;;10907639;32;20047;-73
2022/12/16 00:18:54;;;;;;;3.15;2.12;;;9.00;90.10;;;;;;10907365;32;20042;-73
2022/12/16 00:24:56;;;;;;;7.70;5.05;;;8.80;90.00;;;;;;10909089;27;20027;-73
2022/12/16 00:30:58;;;;;;;7.18;4.53;;;8.80;90.20;;;;;;10906929;32;20035;-73
2022/12/16 00:37:05;;;;;;;7.12;5.12;;;8.70;90.10;;;;;;10905977;32;20398;-73
2022/12/16 00:43:07;;;;;;;7.25;4.75;;;8.90;90.40;;;;;;10906647;32;20031;-73
2022/12/16 00:49:08;;;;;;;6.15;4.50;;;8.90;89.90;;;;;;10906376;32;20050;-73
2022/12/16 00:55:11;;;;;;;5.28;4.10;;;8.70;90.10;;;;;;10906197;32;20046;-73
2022/12/16 01:01:13;;;;;;;7.15;4.22;;;8.70;89.80;;;;;;10904766;32;20050;-73
2022/12/16 01:07:15;;;;;;;7.75;5.10;;;8.70;89.90;;;;;;10905679;32;20023;-73
2022/12/16 01:13:18;;;;;;;7.90;4.95;;;8.60;89.80;;;;;;10905528;32;20302;-73
2022/12/16 01:19:20;;;;;;;7.60;5.12;;;8.60;89.90;;;;;;10904998;32;20027;-73
2022/12/16 01:25:21;;;;;;;7.20;4.55;;;8.50;89.70;;;;;;10899918;32;20050;-73
2022/12/16 01:31:24;;;;;;;7.68;5.80;;;8.50;89.90;;;;;;10905008;32;20050;-73
2022/12/16 01:37:26;;;;;;;7.25;5.78;;;8.50;89.80;;;;;;10904762;32;20019;-73
2022/12/16 01:43:31;;;;;;;12.50;8.05;;;8.40;89.80;;;;;;10904513;32;20039;-73
2022/12/16 01:49:40;;;;;;;10.38;8.02;;;8.40;89.90;;;;;;10904503;32;20035;-73
2022/12/16 01:55:48;;;;;;;8.57;5.85;;;8.40;89.90;;;;;;10904355;32;20023;-73
2022/12/16 02:01:51;;;;;;;9.65;6.68;;;8.50;89.90;;;;;;10904139;32;20420;-73
2022/12/16 02:07:59;;;;;;;8.35;5.55;;;8.50;89.80;;;;;;10904055;32;20027;-73
2022/12/16 02:14:24;;;;;;;7.12;3.97;;;8.60;90.00;;;;;;10907784;32;20446;-73
2022/12/16 02:21:09;;;;;;;5.65;3.62;;;8.70;89.70;;;;;;10911579;32;20050;-73
2022/12/16 02:27:20;;;;;;;5.75;3.62;;;8.60;89.70;;;;;;10911303;32;20043;-73
2022/12/16 02:33:31;;;;;;;6.55;4.72;;;8.50;89.70;;;;;;10911196;32;20059;-73
2022/12/16 02:39:47;;;;;;;6.30;4.28;;;8.50;89.70;;;;;;10911055;32;20392;-73
2022/12/16 02:45:50;;;;;;;3.85;2.50;;;8.30;89.70;;;;;;10910645;32;20031;-73
2022/12/16 02:51:53;;;;;;;6.97;4.40;;;8.40;89.80;;;;;;10910502;32;20059;-73
2022/12/16 02:58:32;;;;;;;5.45;3.92;;;8.60;89.90;;;;;;10910304;32;20027;-73
2022/12/16 03:04:40;;;;;;;7.10;4.53;;;8.60;89.60;;;;;;10869283;32;20050;-73
2022/12/16 03:10:51;;;;;;;6.62;4.32;;;8.50;89.60;;;;;;10868416;32;20062;-73
2022/12/16 03:16:54;;;;;;;5.95;3.85;;;8.60;89.70;;;;;;10867897;32;20050;-73
2022/12/16 03:23:00;;;;;;;7.12;5.05;;;8.50;89.70;;;;;;10867510;32;20051;-73
2022/12/16 03:29:34;;;;;;;6.30;4.05;;;8.50;89.70;;;;;;10867566;32;20093;-73
2022/12/16 03:35:49;;;;;;;6.80;4.53;;;8.50;89.60;;;;;;10867652;32;20027;-73
2022/12/16 03:41:53;;;;;;;8.27;5.87;;;8.40;89.50;;;;;;10908607;32;20377;-73
2022/12/16 03:47:58;;;;;;;8.13;5.62;;;8.30;89.60;;;;;;10907053;32;20031;-73
2022/12/16 03:54:00;;;;;;;19.37;11.98;;;8.30;89.50;;;;;;10908303;32;20045;-73
2022/12/16 04:00:01;;;;;;;12.88;10.35;;;8.20;89.40;;;;;;10908174;32;20027;-73
2022/12/16 04:06:17;;;;;;;17.50;13.77;;;8.20;89.30;;;;;;10908023;32;20055;-73
2022/12/16 04:25:19;;;;;;;15.00;11.90;;;8.00;89.20;;;;;;10907148;32;20067;-73
2022/12/16 04:31:21;;;;;;;13.87;10.17;;;8.00;89.20;;;;;;10907038;32;20023;-73
